Terminal Aerodrome Forecast
Issued by NWS Boston, MA

Home | Current Version | Previous Version | Text Only | Print | Product List | Glossary On
Versions: 1 2 3 4 5 6 7 8 9 10 11 12 13 14 15 16 17 18 19 20 21 22 23 24 25 26 27 28 29 30 31 32 33 34 35 36 37 38 39 40 41 42
000
FTUS41 KBOX 242338
TAFBOS
TAF
KBOS 242338Z 2500/2606 19011KT P6SM BKN120
     FM250700 16005KT P6SM OVC050
     FM251200 14006KT P6SM VCSH OVC035
     FM251300 13008KT 6SM -RA OVC030
     FM251400 12009KT 4SM -RA BR OVC020
     FM251600 11010G22KT 2SM -RA BR OVC008
     FM251900 14012G19KT 3/4SM RA BR OVC003
     FM260300 16006KT 1SM -RA BR OVC005=

USA.gov is the U.S. government's official web portal to all federal, state and local government web resources and services.